Time;durP1;ratioP1;P1;durP2;ratioP2;P2;SDS_P1;SDS_P2;PMS_P1;PMS_P2;Temp;Humidity;BMP_temperature;BMP_pressure;BME280_temperature;BME280_humidity;BME280_pressure;Samples;Min_cycle;Max_cycle;Signal;HPM_P1;HPM_P2
2023/02/25 00:00:23;;;;;;;8.73;2.70;;;4.00;99.90;;;;;;5110340;28;20205;-70
2023/02/25 00:02:50;;;;;;;11.73;2.67;;;4.00;99.90;;;;;;5110366;28;20251;-71
2023/02/25 00:05:18;;;;;;;10.70;2.60;;;4.00;99.90;;;;;;5110380;28;20293;-71
2023/02/25 00:07:45;;;;;;;8.43;2.87;;;4.00;99.90;;;;;;5110421;28;20206;-70
2023/02/25 00:10:14;;;;;;;8.70;2.27;;;4.00;99.90;;;;;;5110241;28;20262;-71
2023/02/25 00:12:41;;;;;;;10.37;2.50;;;4.00;99.90;;;;;;5099219;28;20567;-70
2023/02/25 00:15:10;;;;;;;6.87;2.07;;;4.00;99.90;;;;;;5110360;28;20290;-70
2023/02/25 00:17:38;;;;;;;9.60;2.33;;;4.00;99.90;;;;;;5110151;28;20237;-70
2023/02/25 00:20:08;;;;;;;8.87;2.73;;;4.00;99.90;;;;;;5121109;27;20210;-70
2023/02/25 00:22:36;;;;;;;7.87;2.20;;;3.90;99.90;;;;;;5110147;28;20297;-71
2023/02/25 00:25:03;;;;;;;2.07;1.10;;;3.90;99.90;;;;;;5109830;28;20857;-70
2023/02/25 00:27:31;;;;;;;3.17;1.03;;;3.70;99.90;;;;;;5109652;28;20237;-70
2023/02/25 00:29:59;;;;;;;1.50;1.00;;;3.40;99.90;;;;;;5101170;28;20286;-70
2023/02/25 00:32:26;;;;;;;2.43;1.10;;;3.10;99.90;;;;;;5108204;28;20206;-70
2023/02/25 00:34:53;;;;;;;1.87;0.93;;;2.90;99.90;;;;;;5109592;28;20646;-70
2023/02/25 00:37:20;;;;;;;1.30;0.97;;;2.80;99.90;;;;;;5109490;28;20320;-69
2023/02/25 00:39:47;;;;;;;1.10;0.80;;;2.80;99.90;;;;;;5108187;28;20657;-73
2023/02/25 00:42:15;;;;;;;2.60;0.97;;;2.80;99.90;;;;;;5112814;27;20197;-70
2023/02/25 00:44:45;;;;;;;2.17;0.77;;;2.80;99.90;;;;;;5117569;27;20230;-69
2023/02/25 00:47:13;;;;;;;4.03;1.20;;;2.90;99.90;;;;;;5109856;28;20537;-69
2023/02/25 00:49:41;;;;;;;2.57;0.97;;;2.90;99.90;;;;;;5123078;27;20217;-70
2023/02/25 00:52:08;;;;;;;1.60;0.80;;;2.90;99.90;;;;;;5117013;27;20293;-70
2023/02/25 00:54:35;;;;;;;1.23;0.60;;;2.90;99.90;;;;;;5108819;28;20259;-70
2023/02/25 00:57:02;;;;;;;1.93;1.07;;;2.90;99.90;;;;;;5109146;28;20782;-70
2023/02/25 00:59:29;;;;;;;2.83;1.10;;;2.90;99.90;;;;;;5108563;28;20285;-70
2023/02/25 01:01:57;;;;;;;4.03;1.33;;;2.90;99.90;;;;;;5093037;27;20234;-70
2023/02/25 01:04:24;;;;;;;4.80;1.30;;;2.90;99.90;;;;;;5130050;27;20636;-70
2023/02/25 01:06:53;;;;;;;1.57;1.40;;;3.00;99.90;;;;;;5129728;27;20237;-70
2023/02/25 01:09:20;;;;;;;2.13;1.20;;;3.00;99.90;;;;;;5129581;27;20224;-69
2023/02/25 01:11:48;;;;;;;2.13;1.07;;;3.10;99.90;;;;;;5129235;27;20220;-69
2023/02/25 01:14:17;;;;;;;3.60;1.40;;;3.10;99.90;;;;;;5088786;28;20203;-69
2023/02/25 01:16:45;;;;;;;3.00;1.43;;;3.20;99.90;;;;;;5088375;28;20198;-69
2023/02/25 01:19:15;;;;;;;5.60;1.67;;;3.20;99.90;;;;;;5094775;27;20326;-69
2023/02/25 01:21:45;;;;;;;6.80;2.13;;;3.30;99.90;;;;;;5088353;28;20285;-69
2023/02/25 01:24:14;;;;;;;5.70;1.97;;;3.30;99.90;;;;;;5088502;28;20230;-69
2023/02/25 01:26:43;;;;;;;3.73;2.00;;;3.30;99.90;;;;;;5094841;28;20290;-69
2023/02/25 01:29:12;;;;;;;7.57;2.10;;;3.40;99.90;;;;;;5108559;28;20233;-68
2023/02/25 01:31:39;;;;;;;2.47;1.87;;;3.40;99.90;;;;;;5108102;28;20234;-69
2023/02/25 01:34:08;;;;;;;5.47;2.00;;;3.40;99.90;;;;;;5104854;28;20660;-69
2023/02/25 01:36:36;;;;;;;4.80;2.00;;;3.50;99.90;;;;;;5088329;28;20230;-68
2023/02/25 01:39:04;;;;;;;3.53;1.77;;;3.50;99.90;;;;;;5096082;28;20325;-69
2023/02/25 01:41:32;;;;;;;4.13;2.10;;;3.50;99.90;;;;;;5102754;28;20281;-69
2023/02/25 01:44:08;;;;;;;2.73;2.03;;;3.50;99.90;;;;;;5108845;28;20277;-68
2023/02/25 01:46:36;;;;;;;3.77;1.57;;;3.50;99.90;;;;;;5108294;28;20277;-68
2023/02/25 01:49:04;;;;;;;4.43;1.83;;;3.50;99.90;;;;;;5116727;27;20292;-68
2023/02/25 01:51:32;;;;;;;4.37;1.90;;;3.50;99.90;;;;;;5128796;27;20305;-68
2023/02/25 01:54:03;;;;;;;3.97;2.03;;;3.50;99.90;;;;;;5128938;27;20295;-68
2023/02/25 01:56:31;;;;;;;2.13;1.87;;;3.50;99.90;;;;;;5088397;28;20190;-68
2023/02/25 01:58:59;;;;;;;2.63;1.70;;;3.50;99.90;;;;;;5096660;28;20238;-68
2023/02/25 02:01:29;;;;;;;2.37;1.60;;;3.50;99.90;;;;;;5108272;28;20209;-68
2023/02/25 02:03:57;;;;;;;1.50;1.40;;;3.50;99.90;;;;;;5108514;28;20282;-68
2023/02/25 02:06:28;;;;;;;3.03;1.50;;;3.50;99.90;;;;;;5101346;28;20286;-68
2023/02/25 02:08:55;;;;;;;1.90;1.50;;;3.50;99.90;;;;;;5095115;28;20224;-68
2023/02/25 02:11:23;;;;;;;2.53;1.50;;;3.50;99.90;;;;;;5108306;28;20288;-68
2023/02/25 02:13:56;;;;;;;2.53;1.40;;;3.50;99.90;;;;;;5108197;28;20206;-68
2023/02/25 02:16:40;;;;;;;1.43;1.20;;;3.50;99.90;;;;;;5107906;28;20633;-68
2023/02/25 02:19:24;;;;;;;1.50;1.20;;;3.60;99.90;;;;;;5116896;27;20265;-68
2023/02/25 02:22:00;;;;;;;1.80;1.60;;;3.60;99.90;;;;;;5128428;27;20747;-68
2023/02/25 02:25:13;;;;;;;1.33;1.23;;;3.60;99.90;;;;;;5102972;27;20193;-68
2023/02/25 02:28:08;;;;;;;1.10;1.10;;;3.60;99.90;;;;;;5044408;28;20239;-68
2023/02/25 02:30:50;;;;;;;1.50;1.40;;;3.60;99.90;;;;;;5038709;28;21011;-68
2023/02/25 02:33:24;;;;;;;1.30;1.20;;;3.60;99.90;;;;;;5070536;28;20341;-68
2023/02/25 02:36:01;;;;;;;1.13;1.07;;;3.60;99.90;;;;;;5112279;28;20667;-68
2023/02/25 02:38:35;;;;;;;1.37;1.27;;;3.60;99.90;;;;;;5090043;28;20324;-68
2023/02/25 02:41:07;;;;;;;1.03;1.03;;;3.60;99.90;;;;;;5087693;28;20215;-69
2023/02/25 02:43:42;;;;;;;2.03;1.30;;;3.60;99.90;;;;;;5090835;28;20805;-69
2023/02/25 02:46:15;;;;;;;1.13;1.13;;;3.60;99.90;;;;;;5107639;28;20282;-69
2023/02/25 02:48:50;;;;;;;1.80;1.70;;;3.60;99.90;;;;;;5112756;28;20292;-69
2023/02/25 02:51:22;;;;;;;1.83;1.27;;;3.60;99.90;;;;;;5109876;27;20735;-69
2023/02/25 02:53:53;;;;;;;1.13;1.13;;;3.60;99.90;;;;;;5107179;28;20293;-69
2023/02/25 02:56:23;;;;;;;1.60;1.30;;;3.60;99.90;;;;;;5125997;28;20236;-68
2023/02/25 02:58:54;;;;;;;1.10;1.10;;;3.50;99.90;;;;;;5127684;27;20698;-69
2023/02/25 03:01:25;;;;;;;1.50;1.40;;;3.50;99.90;;;;;;5128085;27;20204;-69
2023/02/25 03:04:00;;;;;;;2.47;1.40;;;3.50;99.90;;;;;;5130299;27;20202;-69
2023/02/25 03:06:31;;;;;;;1.97;0.97;;;3.50;99.90;;;;;;5132388;27;20242;-69
2023/02/25 03:09:04;;;;;;;1.47;1.37;;;3.50;99.90;;;;;;5132027;27;20567;-69
2023/02/25 03:11:31;;;;;;;1.40;1.40;;;3.40;99.90;;;;;;5131961;27;20194;-69
2023/02/25 03:13:58;;;;;;;1.20;1.10;;;3.40;99.90;;;;;;5110129;27;20292;-69
2023/02/25 03:16:31;;;;;;;1.37;1.27;;;3.50;99.90;;;;;;5111045;28;20301;-69
2023/02/25 03:19:05;;;;;;;1.33;1.23;;;3.40;99.90;;;;;;5118947;27;20320;-69
2023/02/25 03:21:38;;;;;;;1.07;1.07;;;3.50;99.90;;;;;;5122847;27;20292;-69
2023/02/25 03:24:08;;;;;;;1.83;1.10;;;3.50;99.90;;;;;;5111229;28;20198;-69
2023/02/25 03:26:35;;;;;;;1.00;1.00;;;3.40;99.90;;;;;;5111255;28;20216;-69
2023/02/25 03:29:02;;;;;;;0.87;0.87;;;3.40;99.90;;;;;;5111148;28;20324;-70
2023/02/25 03:31:32;;;;;;;0.57;0.57;;;3.40;99.90;;;;;;5118099;27;20289;-70
2023/02/25 03:34:07;;;;;;;1.47;0.90;;;3.40;99.90;;;;;;5114877;27;20293;-71
2023/02/25 03:36:38;;;;;;;0.93;0.93;;;3.40;99.90;;;;;;5095353;28;20314;-70
2023/02/25 03:39:10;;;;;;;0.90;0.90;;;3.40;99.90;;;;;;5090367;28;20226;-70
2023/02/25 03:41:41;;;;;;;0.83;0.83;;;3.40;99.90;;;;;;5109236;28;20325;-70
2023/02/25 03:44:10;;;;;;;1.43;0.83;;;3.40;99.90;;;;;;5110678;28;20304;-70
2023/02/25 03:46:41;;;;;;;0.70;0.70;;;3.40;99.90;;;;;;5110655;28;20635;-70
2023/02/25 03:49:15;;;;;;;0.50;0.50;;;3.40;99.90;;;;;;5120040;27;20292;-70
2023/02/25 03:51:46;;;;;;;0.77;0.77;;;3.40;99.90;;;;;;5120907;27;20237;-70
2023/02/25 03:54:15;;;;;;;1.23;0.77;;;3.40;99.90;;;;;;5110546;28;20238;-71
2023/02/25 03:56:44;;;;;;;1.00;1.00;;;3.40;99.90;;;;;;5110503;28;20714;-70
2023/02/25 03:59:12;;;;;;;1.00;0.60;;;3.40;99.90;;;;;;5095709;28;20313;-69
2023/02/25 04:01:40;;;;;;;0.83;0.70;;;3.30;99.90;;;;;;5089991;28;20697;-70
2023/02/25 04:04:09;;;;;;;0.63;0.60;;;3.30;99.90;;;;;;5090180;28;20609;-70
2023/02/25 04:06:35;;;;;;;0.80;0.80;;;3.30;99.90;;;;;;5094984;28;20237;-70
2023/02/25 04:09:04;;;;;;;2.13;0.93;;;3.30;99.90;;;;;;5091274;28;20230;-69
2023/02/25 04:11:31;;;;;;;0.50;0.50;;;3.20;99.90;;;;;;5090021;28;20230;-70
2023/02/25 04:13:58;;;;;;;0.63;0.63;;;3.20;99.90;;;;;;5089759;28;20203;-70
2023/02/25 04:16:25;;;;;;;1.83;1.13;;;3.30;99.90;;;;;;5089394;28;20294;-70
2023/02/25 04:18:52;;;;;;;0.60;0.60;;;3.20;99.90;;;;;;5114123;27;20239;-69
2023/02/25 04:21:29;;;;;;;0.83;0.60;;;3.10;99.90;;;;;;5118509;27;20747;-69
2023/02/25 04:23:56;;;;;;;0.93;0.87;;;3.10;99.90;;;;;;5110017;28;20228;-70
2023/02/25 04:26:23;;;;;;;0.73;0.73;;;3.10;99.90;;;;;;5110227;28;20224;-69
2023/02/25 04:28:50;;;;;;;2.13;0.90;;;3.10;99.90;;;;;;5121758;27;20237;-69
2023/02/25 04:31:17;;;;;;;0.80;0.80;;;3.10;99.90;;;;;;5109932;28;20202;-69
2023/02/25 04:33:48;;;;;;;0.60;0.60;;;3.20;99.90;;;;;;5109925;28;20312;-70
2023/02/25 04:36:27;;;;;;;0.70;0.70;;;3.10;99.90;;;;;;5109781;28;20593;-69
2023/02/25 04:38:55;;;;;;;0.80;0.80;;;3.20;99.90;;;;;;5109187;28;20747;-69
2023/02/25 04:41:23;;;;;;;0.80;0.80;;;3.10;99.90;;;;;;5109584;28;20657;-69
2023/02/25 04:43:50;;;;;;;0.60;0.60;;;3.20;99.90;;;;;;5116641;27;20300;-69
2023/02/25 04:46:17;;;;;;;1.13;0.77;;;3.20;99.90;;;;;;5129863;27;20300;-70
2023/02/25 04:48:44;;;;;;;1.60;0.90;;;3.10;99.90;;;;;;5118070;27;20304;-71
2023/02/25 04:51:10;;;;;;;0.80;0.80;;;3.10;99.90;;;;;;5121115;27;20198;-70
2023/02/25 04:53:39;;;;;;;1.00;0.87;;;3.10;99.90;;;;;;5109649;28;20210;-70
2023/02/25 04:56:07;;;;;;;0.90;0.90;;;3.10;99.90;;;;;;5108989;28;20781;-69
2023/02/25 04:58:35;;;;;;;0.80;0.80;;;3.10;99.90;;;;;;5108756;28;20220;-69
2023/02/25 05:01:04;;;;;;;0.80;0.80;;;3.10;99.90;;;;;;5109076;28;20299;-70
2023/02/25 05:03:32;;;;;;;0.80;0.80;;;3.10;99.90;;;;;;5109198;28;20238;-69
2023/02/25 05:05:58;;;;;;;0.57;0.57;;;3.10;99.90;;;;;;5108714;28;20285;-68
2023/02/25 05:08:26;;;;;;;0.60;0.60;;;3.10;99.90;;;;;;5109167;28;20305;-68
2023/02/25 05:10:54;;;;;;;1.97;0.77;;;3.00;99.90;;;;;;5109209;28;20299;-69
2023/02/25 05:13:21;;;;;;;0.70;0.70;;;3.10;99.90;;;;;;5108929;28;20286;-69
2023/02/25 05:15:48;;;;;;;0.47;0.47;;;3.10;99.90;;;;;;5108775;27;20241;-69
2023/02/25 05:18:16;;;;;;;0.47;0.47;;;3.10;99.90;;;;;;5110306;27;20656;-69
2023/02/25 05:20:44;;;;;;;2.20;0.90;;;3.10;99.90;;;;;;5120071;27;20279;-68
2023/02/25 05:23:11;;;;;;;0.60;0.60;;;3.10;99.90;;;;;;5109387;28;20592;-68
2023/02/25 05:25:40;;;;;;;0.93;0.70;;;3.00;99.90;;;;;;5119263;27;20238;-68
2023/02/25 05:28:09;;;;;;;0.60;0.60;;;3.00;99.90;;;;;;5096338;28;20292;-69
2023/02/25 05:30:38;;;;;;;0.83;0.80;;;3.00;99.90;;;;;;5094162;28;20236;-69
2023/02/25 05:33:05;;;;;;;1.27;0.90;;;3.00;99.90;;;;;;5109037;27;20237;-69
2023/02/25 05:35:32;;;;;;;0.70;0.70;;;3.00;99.90;;;;;;5108693;28;20288;-69
2023/02/25 05:37:59;;;;;;;1.37;1.00;;;3.00;99.90;;;;;;5108559;28;20231;-69
2023/02/25 05:40:26;;;;;;;0.83;0.83;;;2.90;99.90;;;;;;5108401;28;20269;-68
2023/02/25 05:42:53;;;;;;;0.90;0.90;;;2.90;99.90;;;;;;5108652;28;20242;-68
2023/02/25 05:45:21;;;;;;;0.70;0.70;;;2.90;99.90;;;;;;5108783;28;20292;-68
2023/02/25 05:47:51;;;;;;;0.80;0.80;;;2.90;99.90;;;;;;5107987;28;20747;-68
2023/02/25 05:50:18;;;;;;;0.80;0.80;;;2.90;99.90;;;;;;5127200;27;20272;-68
2023/02/25 05:52:45;;;;;;;1.03;1.00;;;2.90;99.90;;;;;;5128720;27;20240;-68
2023/02/25 05:55:12;;;;;;;1.47;0.97;;;2.90;99.90;;;;;;5129062;27;20202;-69
2023/02/25 05:57:39;;;;;;;0.90;0.90;;;2.90;99.90;;;;;;5127141;27;20201;-69
2023/02/25 06:00:10;;;;;;;0.80;0.80;;;2.70;99.90;;;;;;5108142;28;20232;-68
2023/02/25 06:02:38;;;;;;;0.60;0.60;;;2.70;99.90;;;;;;5107800;28;20197;-68
2023/02/25 06:05:06;;;;;;;0.90;0.90;;;2.70;99.90;;;;;;5108469;28;20651;-68
2023/02/25 06:07:33;;;;;;;0.70;0.70;;;2.70;99.90;;;;;;5107801;28;20256;-68
2023/02/25 06:10:01;;;;;;;0.70;0.70;;;2.70;99.90;;;;;;5108203;28;20284;-68
2023/02/25 06:12:29;;;;;;;0.90;0.90;;;2.70;99.90;;;;;;5088556;28;20286;-68
2023/02/25 06:14:56;;;;;;;1.20;0.77;;;2.60;99.90;;;;;;5087925;28;20207;-69
2023/02/25 06:17:23;;;;;;;0.70;0.70;;;2.50;99.90;;;;;;5087786;28;20297;-69
2023/02/25 06:19:52;;;;;;;1.30;0.93;;;2.50;99.90;;;;;;5087625;28;20608;-69
2023/02/25 06:22:20;;;;;;;1.10;0.70;;;2.50;99.90;;;;;;5100348;28;20655;-69
2023/02/25 06:24:47;;;;;;;1.10;0.70;;;2.50;99.90;;;;;;5107765;28;20257;-69
2023/02/25 06:27:14;;;;;;;1.00;0.90;;;2.40;99.90;;;;;;5108053;28;20343;-69
2023/02/25 06:29:41;;;;;;;0.90;0.90;;;2.50;99.90;;;;;;5108038;28;20744;-69
2023/02/25 06:32:08;;;;;;;0.80;0.80;;;2.40;99.90;;;;;;5107859;28;20296;-69
2023/02/25 06:34:36;;;;;;;1.37;1.00;;;2.40;99.90;;;;;;5091561;28;20313;-68
2023/02/25 06:37:04;;;;;;;1.07;0.93;;;2.40;99.90;;;;;;5102901;28;20210;-68
2023/02/25 06:39:31;;;;;;;1.00;1.00;;;2.40;99.90;;;;;;5113334;27;20229;-68
2023/02/25 06:41:58;;;;;;;1.03;0.93;;;2.40;99.90;;;;;;5132691;27;20284;-68
2023/02/25 06:44:28;;;;;;;1.07;1.07;;;2.40;99.90;;;;;;5132011;27;20260;-69
2023/02/25 06:46:55;;;;;;;1.07;1.07;;;2.40;99.90;;;;;;5132248;27;20213;-70
2023/02/25 06:49:22;;;;;;;1.20;0.87;;;2.50;99.90;;;;;;5121631;27;20210;-67
2023/02/25 06:51:49;;;;;;;1.00;1.00;;;2.60;99.90;;;;;;5111650;27;20205;-68
2023/02/25 06:54:18;;;;;;;1.27;1.17;;;2.70;99.90;;;;;;5111241;28;20940;-67
2023/02/25 06:56:45;;;;;;;1.07;1.07;;;2.70;99.90;;;;;;5111978;28;20667;-68
2023/02/25 06:59:12;;;;;;;1.37;1.20;;;2.60;99.90;;;;;;5111889;28;20344;-68
2023/02/25 07:01:39;;;;;;;1.03;0.90;;;2.60;99.90;;;;;;5111176;28;20739;-68
2023/02/25 07:04:06;;;;;;;2.07;1.20;;;2.60;99.90;;;;;;5091149;28;20695;-69
2023/02/25 07:06:33;;;;;;;0.80;0.80;;;2.60;99.90;;;;;;5099942;28;20289;-69
2023/02/25 07:09:00;;;;;;;1.47;0.70;;;2.70;99.90;;;;;;5111590;28;20312;-71
2023/02/25 07:11:34;;;;;;;0.77;0.77;;;2.60;99.90;;;;;;5111333;28;20230;-70
2023/02/25 07:14:02;;;;;;;0.70;0.67;;;2.60;99.90;;;;;;5111479;28;20194;-70
2023/02/25 07:16:29;;;;;;;0.63;0.63;;;2.60;99.90;;;;;;5116548;27;20292;-70
2023/02/25 07:18:57;;;;;;;1.07;0.90;;;2.60;99.90;;;;;;5122645;27;20229;-70
2023/02/25 07:21:28;;;;;;;0.87;0.87;;;2.70;99.90;;;;;;5131778;27;20332;-69
2023/02/25 07:23:55;;;;;;;1.13;0.73;;;2.70;99.90;;;;;;5116400;27;20218;-69
2023/02/25 07:26:27;;;;;;;0.87;0.87;;;2.70;99.90;;;;;;5109793;28;20276;-70
2023/02/25 07:28:56;;;;;;;0.60;0.60;;;2.70;99.90;;;;;;5101670;28;20289;-69
2023/02/25 07:31:24;;;;;;;0.50;0.50;;;2.70;99.90;;;;;;5110754;28;20217;-70
2023/02/25 07:33:51;;;;;;;0.83;0.83;;;2.70;99.90;;;;;;5111277;28;20263;-70
2023/02/25 07:36:18;;;;;;;0.70;0.70;;;2.60;99.90;;;;;;5111127;28;20194;-70
2023/02/25 07:38:47;;;;;;;0.80;0.80;;;2.70;99.90;;;;;;5110540;28;20284;-70
2023/02/25 07:41:16;;;;;;;0.80;0.80;;;2.60;99.90;;;;;;5110772;28;20226;-70
2023/02/25 07:43:43;;;;;;;1.27;1.00;;;2.70;99.90;;;;;;5110898;28;20305;-70
2023/02/25 07:46:13;;;;;;;1.10;0.97;;;2.80;99.90;;;;;;5110725;28;20202;-70
2023/02/25 07:48:40;;;;;;;0.60;0.60;;;2.80;99.90;;;;;;5115568;27;20220;-70
2023/02/25 07:51:08;;;;;;;0.80;0.80;;;2.80;99.90;;;;;;5130885;27;20670;-70
2023/02/25 07:53:35;;;;;;;0.93;0.80;;;2.80;99.90;;;;;;5131005;27;20206;-70
2023/02/25 07:56:02;;;;;;;1.87;0.53;;;2.80;99.90;;;;;;5131171;27;20292;-70
2023/02/25 07:58:29;;;;;;;0.43;0.43;;;2.90;99.90;;;;;;5131035;27;20201;-69
2023/02/25 08:00:56;;;;;;;0.60;0.60;;;2.70;99.90;;;;;;5128870;27;20277;-69
2023/02/25 08:03:24;;;;;;;1.17;0.50;;;2.80;99.90;;;;;;5110292;28;20297;-69
2023/02/25 08:05:53;;;;;;;1.07;0.67;;;2.80;99.90;;;;;;5110605;28;20282;-69
2023/02/25 08:08:20;;;;;;;0.50;0.50;;;2.80;99.90;;;;;;5110274;28;20256;-69
2023/02/25 08:10:46;;;;;;;0.50;0.50;;;2.80;99.90;;;;;;5110030;28;20613;-69
2023/02/25 08:13:13;;;;;;;0.60;0.60;;;2.80;99.90;;;;;;5121945;27;20212;-69
2023/02/25 08:15:41;;;;;;;0.83;0.53;;;2.90;99.90;;;;;;5110039;27;20660;-69
2023/02/25 08:18:09;;;;;;;0.50;0.50;;;2.90;99.90;;;;;;5110207;28;20202;-69
2023/02/25 08:20:37;;;;;;;0.60;0.60;;;2.90;99.90;;;;;;5109907;28;20230;-69
2023/02/25 08:23:05;;;;;;;0.40;0.40;;;2.90;99.90;;;;;;5097378;28;20217;-69
2023/02/25 08:25:32;;;;;;;0.40;0.40;;;2.90;99.90;;;;;;5095059;28;20687;-69
2023/02/25 08:28:00;;;;;;;0.80;0.47;;;2.90;99.90;;;;;;5091476;28;20326;-71
2023/02/25 08:30:26;;;;;;;1.13;0.50;;;2.90;99.90;;;;;;5109698;28;20658;-69
2023/02/25 08:32:53;;;;;;;0.40;0.40;;;3.00;99.90;;;;;;5106858;28;20289;-69
2023/02/25 08:35:20;;;;;;;0.40;0.40;;;3.00;99.90;;;;;;5097491;28;20252;-69
2023/02/25 08:37:49;;;;;;;0.73;0.50;;;3.00;99.90;;;;;;5089312;28;20321;-69
2023/02/25 08:40:16;;;;;;;0.40;0.40;;;3.00;99.90;;;;;;5089337;28;20321;-69
2023/02/25 08:42:43;;;;;;;0.70;0.60;;;3.00;99.90;;;;;;5098318;28;20536;-69
2023/02/25 08:45:11;;;;;;;0.93;0.50;;;3.00;99.90;;;;;;5109377;28;20300;-69
2023/02/25 08:47:38;;;;;;;0.57;0.57;;;3.00;99.90;;;;;;5109285;28;20206;-68
2023/02/25 08:50:05;;;;;;;0.50;0.50;;;2.90;99.90;;;;;;5125979;27;20294;-69
2023/02/25 08:52:33;;;;;;;0.87;0.80;;;2.90;99.90;;;;;;5105827;28;20282;-69
2023/02/25 08:55:01;;;;;;;1.20;0.53;;;2.90;99.90;;;;;;5097269;28;20558;-70
2023/02/25 08:57:29;;;;;;;1.40;0.77;;;3.00;99.90;;;;;;5088734;28;20252;-69
2023/02/25 08:59:56;;;;;;;0.40;0.40;;;3.00;99.90;;;;;;5093284;28;20321;-69
2023/02/25 09:02:24;;;;;;;0.40;0.40;;;3.00;99.90;;;;;;5097215;28;20199;-71
2023/02/25 09:04:51;;;;;;;0.33;0.33;;;3.00;99.90;;;;;;5100535;28;20208;-70
2023/02/25 09:07:19;;;;;;;0.80;0.50;;;3.00;99.90;;;;;;5095607;28;20286;-70
2023/02/25 09:09:46;;;;;;;0.67;0.37;;;3.00;99.90;;;;;;5106240;27;20271;-70
2023/02/25 09:12:14;;;;;;;0.50;0.50;;;3.00;99.90;;;;;;5100626;28;20260;-69
2023/02/25 09:14:41;;;;;;;0.30;0.30;;;3.00;99.90;;;;;;5100395;28;20291;-70
2023/02/25 09:17:08;;;;;;;0.50;0.50;;;2.90;99.90;;;;;;5096485;28;20297;-70
2023/02/25 09:19:37;;;;;;;0.30;0.30;;;2.90;99.90;;;;;;5122138;27;20668;-69
2023/02/25 09:22:04;;;;;;;0.40;0.40;;;2.90;99.90;;;;;;5129694;27;20569;-69
2023/02/25 09:24:32;;;;;;;0.33;0.30;;;3.00;99.90;;;;;;5108593;27;20301;-68
2023/02/25 09:26:59;;;;;;;0.50;0.50;;;3.00;99.90;;;;;;5108686;28;20642;-69
2023/02/25 09:29:28;;;;;;;1.07;0.53;;;3.00;99.90;;;;;;5121236;27;20194;-69
2023/02/25 09:31:55;;;;;;;0.50;0.50;;;3.00;99.90;;;;;;5129165;27;20205;-68
2023/02/25 09:34:21;;;;;;;0.47;0.47;;;3.10;99.90;;;;;;5129448;27;20296;-70
2023/02/25 09:36:48;;;;;;;0.70;0.70;;;3.10;99.90;;;;;;5129142;27;20687;-69
2023/02/25 09:39:15;;;;;;;0.50;0.50;;;3.10;99.90;;;;;;5093516;27;20669;-70
2023/02/25 09:41:49;;;;;;;0.37;0.37;;;3.10;99.90;;;;;;5088588;28;20230;-69
2023/02/25 09:44:20;;;;;;;0.43;0.43;;;3.10;99.90;;;;;;5088383;28;20226;-69
2023/02/25 09:46:52;;;;;;;0.50;0.50;;;3.20;99.90;;;;;;5090239;28;20209;-68
2023/02/25 09:49:26;;;;;;;0.40;0.40;;;3.30;99.90;;;;;;5095500;28;20222;-69
2023/02/25 09:52:00;;;;;;;1.00;0.20;;;3.40;99.90;;;;;;5104659;27;20680;-70
2023/02/25 09:54:33;;;;;;;0.27;0.20;;;3.40;99.90;;;;;;5097620;28;20198;-71
2023/02/25 09:57:02;;;;;;;0.30;0.30;;;3.40;99.90;;;;;;5108946;28;20289;-69
2023/02/25 09:59:30;;;;;;;0.37;0.30;;;3.40;99.90;;;;;;5116912;27;20197;-69
2023/02/25 10:02:02;;;;;;;0.50;0.40;;;3.40;99.90;;;;;;5113560;27;20244;-69
2023/02/25 10:04:33;;;;;;;0.30;0.30;;;3.50;99.90;;;;;;5109340;28;20724;-70
2023/02/25 10:07:08;;;;;;;0.40;0.40;;;3.50;99.90;;;;;;5118681;27;20206;-70
2023/02/25 10:09:44;;;;;;;0.30;0.30;;;3.40;99.90;;;;;;5108258;28;20229;-70
2023/02/25 10:12:20;;;;;;;0.30;0.30;;;3.30;99.90;;;;;;5108618;28;20190;-70
2023/02/25 10:15:20;;;;;;;0.30;0.30;;;3.20;99.90;;;;;;5108074;28;20644;-70
2023/02/25 10:18:02;;;;;;;0.30;0.30;;;3.30;99.90;;;;;;5108058;28;20240;-70
2023/02/25 10:20:42;;;;;;;0.50;0.50;;;3.20;99.90;;;;;;5118306;27;20218;-69
2023/02/25 10:23:22;;;;;;;1.10;0.40;;;3.20;99.90;;;;;;5119643;27;20222;-69
2023/02/25 10:25:56;;;;;;;0.30;0.30;;;3.40;99.90;;;;;;5108430;28;20209;-69
2023/02/25 10:28:24;;;;;;;0.87;0.47;;;3.50;99.90;;;;;;5097407;28;20257;-69
2023/02/25 10:30:58;;;;;;;0.50;0.50;;;3.60;99.90;;;;;;5098603;28;20202;-69
2023/02/25 10:33:31;;;;;;;0.30;0.30;;;3.60;99.90;;;;;;5114640;28;20283;-70
2023/02/25 10:36:07;;;;;;;0.40;0.40;;;3.70;99.90;;;;;;5120144;27;20763;-70
2023/02/25 10:38:36;;;;;;;0.40;0.40;;;3.80;99.90;;;;;;5107558;28;20194;-70
2023/02/25 10:41:04;;;;;;;0.20;0.20;;;3.90;99.90;;;;;;5108012;28;20233;-70
2023/02/25 10:43:34;;;;;;;0.20;0.20;;;3.90;99.90;;;;;;5108176;28;20226;-70
2023/02/25 10:46:09;;;;;;;6.17;4.97;;;3.90;99.90;;;;;;5108170;28;20302;-70
2023/02/25 10:48:40;;;;;;;0.47;0.40;;;3.80;99.90;;;;;;5113506;28;20242;-70
2023/02/25 10:51:10;;;;;;;0.20;0.20;;;3.90;99.90;;;;;;5123601;27;20717;-70
2023/02/25 10:53:38;;;;;;;0.30;0.27;;;4.00;99.90;;;;;;5107845;28;20198;-72
2023/02/25 10:56:06;;;;;;;0.40;0.20;;;4.10;99.90;;;;;;5107814;28;20306;-70
2023/02/25 10:58:39;;;;;;;0.17;0.17;;;4.00;99.90;;;;;;5107891;28;20262;-70
2023/02/25 11:01:12;;;;;;;0.20;0.20;;;4.10;99.90;;;;;;5112431;28;20221;-70
2023/02/25 11:03:46;;;;;;;0.20;0.20;;;4.10;99.90;;;;;;5102938;27;20237;-69
2023/02/25 11:06:19;;;;;;;0.10;0.10;;;4.10;99.90;;;;;;5099921;28;20561;-69
2023/02/25 11:08:46;;;;;;;0.33;0.20;;;4.20;99.90;;;;;;5102629;28;20195;-69
2023/02/25 11:11:19;;;;;;;0.43;0.30;;;4.20;99.90;;;;;;5103946;28;20240;-69
2023/02/25 11:13:55;;;;;;;0.30;0.30;;;4.20;99.90;;;;;;5098483;28;20492;-69
2023/02/25 11:16:23;;;;;;;0.10;0.10;;;4.20;99.90;;;;;;5099168;28;20186;-69
2023/02/25 11:18:55;;;;;;;0.20;0.20;;;4.20;99.90;;;;;;5103504;28;20205;-69
2023/02/25 11:21:31;;;;;;;0.30;0.23;;;4.30;99.90;;;;;;5098455;28;20776;-69
2023/02/25 11:24:02;;;;;;;0.20;0.20;;;4.30;99.90;;;;;;5101752;28;20732;-69
2023/02/25 11:26:32;;;;;;;1.10;0.10;;;4.40;99.90;;;;;;5088806;28;20253;-69
2023/02/25 11:29:01;;;;;;;0.10;0.10;;;4.40;99.90;;;;;;5088849;28;20277;-69
2023/02/25 11:31:33;;;;;;;0.27;0.27;;;4.40;99.90;;;;;;5089103;28;20749;-69
2023/02/25 11:34:05;;;;;;;0.20;0.20;;;4.30;99.90;;;;;;5088669;28;20203;-69
2023/02/25 11:36:35;;;;;;;0.40;0.20;;;4.20;99.90;;;;;;5088930;28;20194;-68
2023/02/25 11:39:15;;;;;;;0.13;0.13;;;4.10;99.90;;;;;;5092763;28;20221;-69
2023/02/25 11:41:45;;;;;;;0.10;0.10;;;3.90;99.90;;;;;;5088659;28;20618;-68
2023/02/25 11:44:39;;;;;;;0.17;0.17;;;3.80;99.90;;;;;;5088491;28;20227;-69
2023/02/25 11:47:18;;;;;;;0.20;0.20;;;3.80;99.90;;;;;;5091074;28;20274;-70
2023/02/25 11:50:04;;;;;;;0.10;0.10;;;3.70;99.90;;;;;;5108990;28;20224;-69
2023/02/25 11:52:40;;;;;;;0.27;0.27;;;3.60;99.90;;;;;;5091595;28;20601;-69
2023/02/25 11:55:19;;;;;;;0.30;0.30;;;3.60;99.90;;;;;;5104811;28;20660;-69
2023/02/25 11:57:58;;;;;;;0.30;0.30;;;3.50;99.90;;;;;;5103464;27;20308;-67
2023/02/25 12:00:31;;;;;;;1.40;1.30;;;3.50;99.90;;;;;;5103649;27;20321;-68
2023/02/25 12:03:20;;;;;;;1.10;1.10;;;3.50;99.90;;;;;;5088122;28;20199;-69
2023/02/25 12:06:03;;;;;;;0.30;0.30;;;3.60;99.90;;;;;;5088727;28;20234;-69
2023/02/25 12:08:48;;;;;;;0.40;0.40;;;3.70;99.90;;;;;;5108034;28;20190;-69
2023/02/25 12:11:44;;;;;;;0.20;0.20;;;3.80;99.90;;;;;;5108434;28;20198;-69
2023/02/25 12:14:42;;;;;;;0.50;0.30;;;3.80;99.90;;;;;;5108258;28;20194;-68
2023/02/25 12:17:51;;;;;;;0.20;0.20;;;3.70;99.90;;;;;;5108119;27;20313;-69
2023/02/25 12:20:57;;;;;;;0.20;0.20;;;3.70;99.90;;;;;;5091103;28;20206;-68
2023/02/25 12:24:15;;;;;;;0.30;0.30;;;3.60;99.90;;;;;;5098522;28;20547;-69
2023/02/25 12:26:59;;;;;;;0.20;0.20;;;3.50;99.90;;;;;;5108243;28;20277;-68
2023/02/25 12:29:48;;;;;;;0.20;0.20;;;3.50;99.90;;;;;;5108031;28;20294;-68
2023/02/25 12:32:43;;;;;;;0.10;0.10;;;3.50;99.90;;;;;;5088222;28;20199;-69
2023/02/25 12:35:34;;;;;;;0.37;0.30;;;3.50;99.90;;;;;;5087394;28;20223;-68
2023/02/25 12:38:31;;;;;;;0.20;0.20;;;3.50;99.90;;;;;;5087436;28;20205;-69
2023/02/25 12:41:16;;;;;;;0.30;0.30;;;3.50;99.90;;;;;;5096513;28;20331;-69
2023/02/25 12:43:49;;;;;;;0.30;0.30;;;3.50;99.90;;;;;;5104159;28;20312;-68
2023/02/25 12:46:38;;;;;;;0.40;0.40;;;3.50;99.90;;;;;;5103470;28;20644;-68
2023/02/25 12:49:53;;;;;;;1.30;0.30;;;3.50;99.90;;;;;;5106494;27;20197;-68
2023/02/25 12:52:26;;;;;;;1.90;0.30;;;3.50;99.90;;;;;;5099615;28;20202;-67
2023/02/25 12:55:18;;;;;;;0.97;0.97;;;3.50;99.90;;;;;;5104624;27;20236;-67
2023/02/25 12:57:54;;;;;;;0.80;0.80;;;3.60;99.90;;;;;;5097288;28;20186;-68
2023/02/25 13:00:54;;;;;;;0.30;0.30;;;3.70;99.90;;;;;;5098927;28;20186;-69
2023/02/25 13:03:45;;;;;;;0.30;0.30;;;3.60;99.90;;;;;;5096700;28;20583;-69
2023/02/25 13:06:35;;;;;;;0.73;0.30;;;3.50;99.90;;;;;;5107858;27;20451;-68
2023/02/25 13:09:15;;;;;;;0.77;0.47;;;3.50;99.90;;;;;;5109006;28;20281;-69
2023/02/25 13:11:55;;;;;;;0.30;0.30;;;3.50;99.90;;;;;;5116964;27;20699;-69
2023/02/25 13:14:37;;;;;;;2.87;0.30;;;3.50;99.90;;;;;;5115356;27;20719;-68
2023/02/25 13:17:33;;;;;;;0.70;0.40;;;3.50;99.90;;;;;;5109508;28;20285;-68
2023/02/25 13:20:36;;;;;;;0.63;0.40;;;3.50;99.90;;;;;;5114237;27;20209;-68